Time;durP1;ratioP1;P1;durP2;ratioP2;P2;SDS_P1;SDS_P2;PMS_P1;PMS_P2;Temp;Humidity;BMP_temperature;BMP_pressure;BME280_temperature;BME280_humidity;BME280_pressure;Samples;Min_cycle;Max_cycle;Signal;HPM_P1;HPM_P2
2021/12/22 00:00:55;;;;;;;7.68;6.95;;;;;;;0.82;67.65;100977.28;6224260;22;20603;-75
2021/12/22 00:03:24;;;;;;;6.18;5.75;;;;;;;0.87;67.43;100986.44;6276581;22;20375;-74
2021/12/22 00:05:52;;;;;;;5.90;5.35;;;;;;;0.89;66.57;100982.72;6247391;22;20015;-71
2021/12/22 00:08:22;;;;;;;4.85;4.35;;;;;;;0.77;66.89;100972.41;6248559;22;20098;-78
2021/12/22 00:10:49;;;;;;;4.45;4.18;;;;;;;0.75;67.39;100962.88;6254737;22;20007;-74
2021/12/22 00:13:15;;;;;;;5.20;4.40;;;;;;;0.81;67.78;100965.66;6250534;22;20035;-74
2021/12/22 00:15:43;;;;;;;4.80;4.60;;;;;;;0.73;67.13;100957.69;6252977;23;20004;-74
2021/12/22 00:18:10;;;;;;;3.58;3.38;;;;;;;0.75;67.67;100971.78;6257137;23;20008;-77
2021/12/22 00:20:40;;;;;;;4.97;3.38;;;;;;;0.84;67.37;100984.13;6256046;23;20334;-74
2021/12/22 00:23:23;;;;;;;2.88;2.72;;;;;;;0.68;67.33;100965.47;6254431;22;20012;-74
2021/12/22 00:25:52;;;;;;;2.58;2.47;;;;;;;0.66;67.80;100962.97;6251523;23;20004;-74
2021/12/22 00:28:21;;;;;;;6.20;3.72;;;;;;;0.71;67.60;100975.88;6256994;22;20000;-75
2021/12/22 00:30:50;;;;;;;3.08;2.70;;;;;;;0.62;67.98;100950.09;6253250;23;19996;-75
2021/12/22 00:33:17;;;;;;;3.67;3.38;;;;;;;0.66;67.31;100965.66;6255071;23;20034;-76
2021/12/22 00:35:45;;;;;;;2.88;2.53;;;;;;;0.62;67.46;100960.84;6256055;23;20008;-73
2021/12/22 00:38:21;;;;;;;2.25;2.08;;;;;;;0.63;67.10;100962.53;6254610;22;20011;-76
2021/12/22 00:41:10;;;;;;;2.13;2.03;;;;;;;0.57;67.06;100960.56;6227676;23;20449;-75
2021/12/22 00:44:30;;;;;;;2.85;2.75;;;;;;;0.78;67.74;100992.94;6228558;23;20012;-74
2021/12/22 00:46:56;;;;;;;4.03;2.58;;;;;;;0.70;68.02;100984.97;6249867;22;20030;-74
2021/12/22 00:49:27;;;;;;;2.92;2.72;;;;;;;0.52;67.92;100961.97;6259175;23;20008;-76
2021/12/22 00:51:55;;;;;;;4.20;3.90;;;;;;;0.72;67.99;101001.78;6256948;23;20015;-76
2021/12/22 00:54:26;;;;;;;6.68;4.40;;;;;;;0.56;67.88;100981.28;6233737;23;20020;-77
2021/12/22 00:57:02;;;;;;;4.13;3.72;;;;;;;0.48;67.57;100966.06;6257136;23;20000;-78
2021/12/22 00:59:31;;;;;;;3.20;3.00;;;;;;;0.50;67.31;100969.41;6265568;23;20055;-78
2021/12/22 01:02:00;;;;;;;2.60;2.40;;;;;;;0.52;67.26;100963.81;6264856;23;20004;-77
2021/12/22 01:04:28;;;;;;;2.97;2.65;;;;;;;0.56;67.09;100972.38;6258861;22;20000;-76
2021/12/22 01:07:08;;;;;;;4.38;3.33;;;;;;;0.51;68.01;100965.69;6227214;23;20091;-78
2021/12/22 01:09:38;;;;;;;3.28;3.08;;;;;;;0.43;67.21;100949.63;6258037;22;20004;-77
2021/12/22 01:12:10;;;;;;;3.33;3.13;;;;;;;0.36;68.23;100946.00;6254648;23;20012;-76
2021/12/22 01:14:57;;;;;;;4.88;3.97;;;;;;;0.45;67.60;100974.50;6257493;22;20047;-77
2021/12/22 01:18:00;;;;;;;;;;;;;;;;;;;;;
2021/12/22 01:57:44;;;;;;;;;;;;;;;;;;;;;
2021/12/22 02:00:19;;;;;;;5.05;4.53;;;;;;;0.04;67.99;100921.13;6054146;23;20046;-72
2021/12/22 02:02:46;;;;;;;3.55;3.17;;;;;;;-0.01;68.21;100915.50;6102596;23;20357;-73
2021/12/22 02:05:12;;;;;;;3.35;3.10;;;;;;;-0.04;68.04;100914.00;6070893;23;20192;-73
2021/12/22 02:07:48;;;;;;;5.00;4.55;;;;;;;-0.02;68.63;100922.72;6166353;23;20426;-71
2021/12/22 02:10:40;;;;;;;4.78;4.28;;;;;;;-0.05;68.85;100920.38;6217489;23;20058;-72
2021/12/22 02:13:05;;;;;;;6.22;4.22;;;;;;;-0.08;68.88;100923.44;6179578;22;20102;-70
2021/12/22 02:15:42;;;;;;;4.07;3.78;;;;;;;-0.12;68.82;100905.19;6245952;22;20035;-70
2021/12/22 02:18:17;;;;;;;5.47;3.75;;;;;;;-0.15;68.55;100897.50;6245218;23;20020;-71
2021/12/22 02:20:43;;;;;;;7.20;4.63;;;;;;;-0.04;68.53;100913.19;6223037;23;20008;-72
2021/12/22 02:23:16;;;;;;;6.70;3.35;;;;;;;-0.03;69.23;100914.81;6245907;22;20004;-70
2021/12/22 02:25:54;;;;;;;3.58;3.35;;;;;;;-0.16;68.42;100893.13;6245988;22;20011;-71
2021/12/22 02:28:25;;;;;;;4.90;4.50;;;;;;;-0.02;68.78;100911.13;6242298;23;20004;-70
2021/12/22 02:31:13;;;;;;;4.35;3.95;;;;;;;-0.10;68.94;100889.69;6217088;23;20035;-71
2021/12/22 02:33:43;;;;;;;10.55;5.05;;;;;;;-0.06;68.74;100894.53;6240785;23;20479;-69
2021/12/22 02:38:43;;;;;;;4.28;3.88;;;;;;;0.04;68.49;100899.63;6256697;22;20008;-71
2021/12/22 02:41:12;;;;;;;4.22;3.70;;;;;;;-0.06;69.58;100880.25;6246750;23;20370;-71
2021/12/22 02:43:50;;;;;;;3.83;3.53;;;;;;;-0.07;69.47;100892.03;6250659;23;20076;-70
2021/12/22 02:46:28;;;;;;;4.43;3.50;;;;;;;-0.08;69.48;100890.38;6250074;22;20022;-71
2021/12/22 02:48:54;;;;;;;3.50;3.30;;;;;;;-0.01;68.62;100896.69;6242693;23;20014;-70
2021/12/22 02:51:21;;;;;;;3.40;3.10;;;;;;;0.00;69.38;100882.22;6242767;23;20012;-70
2021/12/22 02:54:01;;;;;;;5.57;2.95;;;;;;;0.00;69.49;100882.22;6241090;23;20011;-71
2021/12/22 02:56:49;;;;;;;3.65;3.35;;;;;;;0.02;69.60;100885.53;6242539;22;20066;-77
2021/12/22 03:02:16;;;;;;;4.45;3.17;;;;;;;-0.02;69.52;100879.69;6253344;23;20046;-77
2021/12/22 03:04:49;;;;;;;3.53;3.33;;;;;;;0.05;69.11;100892.41;6253148;23;20008;-78
2021/12/22 03:07:19;;;;;;;3.17;3.03;;;;;;;0.03;69.58;100881.84;6254132;22;20633;-78
2021/12/22 03:10:00;;;;;;;3.33;2.95;;;;;;;-0.02;68.92;100868.09;6253258;23;20039;-79
2021/12/22 03:12:27;;;;;;;2.97;2.67;;;;;;;0.05;69.05;100887.84;6253440;23;19996;-78
2021/12/22 03:14:53;;;;;;;3.47;3.17;;;;;;;-0.01;69.48;100881.38;6252015;22;20016;-77
2021/12/22 03:17:18;;;;;;;4.35;4.05;;;;;;;0.06;68.75;100888.69;6251319;23;20441;-77
2021/12/22 03:19:44;;;;;;;8.45;3.78;;;;;;;0.05;69.34;100879.78;6253302;22;20087;-77
2021/12/22 03:22:11;;;;;;;4.25;3.15;;;;;;;0.01;69.61;100867.72;6254283;22;20007;-78
2021/12/22 03:24:39;;;;;;;2.80;2.60;;;;;;;0.06;69.13;100865.34;6254682;23;20096;-77
2021/12/22 03:27:07;;;;;;;3.35;2.83;;;;;;;0.05;70.14;100869.03;6254340;22;20012;-76
2021/12/22 03:29:35;;;;;;;3.35;3.08;;;;;;;0.06;70.55;100865.34;6247895;23;20008;-77
2021/12/22 03:32:01;;;;;;;3.65;2.63;;;;;;;0.08;70.36;100868.66;6248742;23;20003;-76
2021/12/22 03:34:27;;;;;;;3.63;3.42;;;;;;;0.10;69.57;100872.00;6243288;23;20000;-76
2021/12/22 03:36:53;;;;;;;2.58;2.28;;;;;;;0.10;70.14;100858.56;6218909;23;20058;-76
2021/12/22 03:39:19;;;;;;;3.33;2.95;;;;;;;0.05;69.97;100852.91;6238734;23;20426;-76
2021/12/22 03:41:46;;;;;;;3.50;2.17;;;;;;;0.10;70.20;100855.88;6240435;23;20039;-74
2021/12/22 03:44:12;;;;;;;2.83;2.70;;;;;;;0.08;69.91;100841.75;6246723;23;20012;-75
2021/12/22 03:46:39;;;;;;;2.03;1.92;;;;;;;0.08;69.24;100844.44;6249369;23;20027;-75
2021/12/22 03:49:07;;;;;;;3.55;2.30;;;;;;;0.07;69.60;100840.09;6219773;23;20728;-74
2021/12/22 03:51:33;;;;;;;2.53;2.15;;;;;;;0.09;70.22;100843.44;6250462;23;20055;-75
2021/12/22 03:53:59;;;;;;;2.97;2.80;;;;;;;0.05;70.02;100831.38;6248313;23;20126;-75
2021/12/22 03:56:25;;;;;;;2.90;2.70;;;;;;;0.05;70.12;100828.69;6248879;23;20287;-75
2021/12/22 03:58:51;;;;;;;2.22;2.13;;;;;;;0.04;70.66;100828.88;6251447;23;20011;-75
2021/12/22 04:01:17;;;;;;;2.17;2.08;;;;;;;0.05;69.97;100836.75;6248542;22;20442;-74
2021/12/22 04:03:45;;;;;;;3.70;1.95;;;;;;;0.04;70.67;100835.09;6249989;23;20092;-73
2021/12/22 04:06:10;;;;;;;1.92;1.83;;;;;;;0.02;70.02;100841.69;6253934;23;20008;-76
2021/12/22 04:08:36;;;;;;;2.47;2.28;;;;;;;-0.03;69.94;100845.78;6227484;23;20014;-74
2021/12/22 04:11:02;;;;;;;1.48;1.38;;;;;;;-0.05;70.02;100842.41;6225250;23;20015;-75
2021/12/22 04:13:27;;;;;;;3.63;3.42;;;;;;;-0.04;70.43;100845.97;6201881;23;20023;-72
2021/12/22 04:15:53;;;;;;;4.30;4.00;;;;;;;-0.07;69.76;100849.84;6248838;23;20035;-74
2021/12/22 04:18:21;;;;;;;4.05;3.63;;;;;;;-0.09;70.97;100834.91;6241869;23;20023;-74
2021/12/22 04:20:47;;;;;;;4.18;3.78;;;;;;;-0.11;70.49;100826.22;6249896;22;20067;-79
2021/12/22 04:23:42;;;;;;;3.60;3.30;;;;;;;-0.05;70.22;100820.09;6225248;23;20035;-79
2021/12/22 04:26:08;;;;;;;3.95;3.15;;;;;;;-0.10;70.71;100817.09;6226108;23;20015;-78
2021/12/22 04:28:34;;;;;;;3.95;3.65;;;;;;;-0.17;70.72;100794.69;6247817;23;20007;-76
2021/12/22 04:30:59;;;;;;;3.72;3.42;;;;;;;0.01;70.37;100818.50;6221978;23;20066;-76
2021/12/22 04:33:25;;;;;;;2.65;2.50;;;;;;;-0.04;70.72;100811.00;6248127;22;20004;-76
2021/12/22 04:35:51;;;;;;;3.00;2.67;;;;;;;-0.12;71.00;100797.66;6220336;23;20425;-77
2021/12/22 04:38:18;;;;;;;5.40;3.25;;;;;;;-0.05;71.46;100809.31;6248689;23;20031;-74
2021/12/22 04:40:43;;;;;;;3.40;3.20;;;;;;;-0.01;70.94;100827.59;6246945;22;20007;-76
2021/12/22 04:43:09;;;;;;;2.97;2.78;;;;;;;0.02;71.77;100830.94;6249240;23;20008;-77
2021/12/22 04:45:35;;;;;;;2.42;2.22;;;;;;;-0.01;70.74;100824.91;6255429;23;20019;-76
2021/12/22 04:48:01;;;;;;;1.98;1.88;;;;;;;0.00;71.67;100833.81;6252476;22;20004;-76
2021/12/22 04:50:27;;;;;;;3.78;3.45;;;;;;;-0.04;70.86;100819.06;6260530;22;20030;-76
2021/12/22 04:53:02;;;;;;;4.43;3.95;;;;;;;-0.04;71.21;100811.00;6253563;23;20688;-76
2021/12/22 04:55:29;;;;;;;3.75;3.53;;;;;;;0.00;71.77;100796.16;6255489;22;20011;-76
2021/12/22 04:57:56;;;;;;;3.97;3.67;;;;;;;0.01;71.58;100800.50;6253803;23;20075;-75
2021/12/22 05:00:24;;;;;;;4.32;3.72;;;;;;;0.03;71.89;100798.47;6248379;22;20000;-76
2021/12/22 05:02:50;;;;;;;5.07;4.78;;;;;;;0.03;71.75;100785.03;6251616;23;20000;-78
2021/12/22 05:05:16;;;;;;;5.80;3.75;;;;;;;0.04;71.28;100777.78;6253245;23;20007;-76
2021/12/22 05:07:43;;;;;;;4.95;3.25;;;;;;;0.03;71.76;100785.03;6245734;23;20009;-76
2021/12/22 05:10:09;;;;;;;3.78;3.38;;;;;;;0.05;71.93;100793.75;6222072;23;20422;-77
2021/12/22 05:12:34;;;;;;;12.82;4.63;;;;;;;0.04;71.72;100775.94;6243273;23;20115;-76
2021/12/22 05:15:00;;;;;;;7.18;4.47;;;;;;;0.08;72.35;100777.22;6221870;23;20028;-77
2021/12/22 05:17:49;;;;;;;5.70;4.20;;;;;;;0.07;71.68;100786.31;6257980;22;20004;-77
2021/12/22 05:20:13;;;;;;;4.78;3.83;;;;;;;0.10;71.64;100791.34;6219771;23;20160;-76
2021/12/22 05:22:43;;;;;;;5.72;4.07;;;;;;;0.03;71.83;100779.66;6245284;22;20307;-76
2021/12/22 05:25:10;;;;;;;3.38;3.10;;;;;;;0.12;72.40;100773.13;6226016;23;20012;-76
2021/12/22 05:27:37;;;;;;;7.43;4.53;;;;;;;0.19;71.85;100773.22;6251780;23;20004;-78
2021/12/22 05:30:05;;;;;;;4.32;3.95;;;;;;;0.24;71.87;100773.47;6243694;22;20083;-77
2021/12/22 05:32:32;;;;;;;4.40;4.10;;;;;;;0.28;72.82;100776.66;6238468;23;20311;-77
2021/12/22 05:35:03;;;;;;;5.80;5.10;;;;;;;0.29;72.83;100778.28;6242412;23;20082;-75
2021/12/22 05:37:29;;;;;;;4.65;4.05;;;;;;;0.32;73.17;100783.28;6237585;23;20090;-76
2021/12/22 05:39:56;;;;;;;3.35;3.15;;;;;;;0.29;72.69;100775.59;6242417;23;20012;-75
2021/12/22 05:42:26;;;;;;;4.05;2.90;;;;;;;0.32;73.21;100772.53;6211380;23;20082;-75
2021/12/22 05:44:52;;;;;;;3.55;3.25;;;;;;;0.35;73.17;100761.38;6240526;23;20062;-75
2021/12/22 05:47:17;;;;;;;3.05;2.85;;;;;;;0.37;72.67;100764.72;6243102;23;20012;-75
2021/12/22 05:49:44;;;;;;;6.97;3.97;;;;;;;0.37;73.41;100761.22;6237634;22;20004;-75
2021/12/22 05:52:10;;;;;;;3.00;2.83;;;;;;;0.38;72.28;100762.88;6240988;23;20413;-75
2021/12/22 05:54:35;;;;;;;3.72;3.47;;;;;;;0.31;72.47;100765.50;6241170;23;20008;-76
2021/12/22 05:57:01;;;;;;;3.50;3.20;;;;;;;0.27;72.33;100785.72;6242138;23;20322;-74
2021/12/22 05:59:36;;;;;;;3.50;3.20;;;;;;;0.19;73.24;100777.75;6248380;22;20008;-74
2021/12/22 06:02:02;;;;;;;3.78;3.58;;;;;;;0.20;72.94;100784.81;6249650;23;20003;-73
2021/12/22 06:04:28;;;;;;;3.42;3.22;;;;;;;0.15;73.42;100778.13;6245343;23;20031;-72
2021/12/22 06:06:53;;;;;;;3.13;2.92;;;;;;;0.17;73.67;100786.00;6245498;23;20008;-75
2021/12/22 06:09:19;;;;;;;3.20;2.80;;;;;;;0.07;72.45;100780.94;6251826;23;20094;-76
2021/12/22 06:11:44;;;;;;;3.05;2.78;;;;;;;0.11;73.64;100786.78;6249250;23;20360;-78
2021/12/22 06:14:09;;;;;;;2.03;1.80;;;;;;;0.09;72.93;100784.28;6228981;23;20067;-76
2021/12/22 06:16:35;;;;;;;2.53;2.33;;;;;;;0.07;73.63;100780.09;6244921;22;20023;-76
2021/12/22 06:19:08;;;;;;;3.25;2.90;;;;;;;0.06;72.99;100784.66;6219416;23;20043;-76
2021/12/22 06:21:34;;;;;;;2.83;2.63;;;;;;;-0.01;73.25;100783.75;6247611;23;20016;-75
2021/12/22 06:23:59;;;;;;;4.18;2.95;;;;;;;0.00;73.03;100774.66;6249760;23;20047;-75
2021/12/22 06:26:25;;;;;;;7.43;3.70;;;;;;;0.00;73.76;100769.28;6240465;23;20398;-74
2021/12/22 06:28:50;;;;;;;2.85;2.75;;;;;;;0.03;73.82;100778.81;6190377;23;20008;-75
2021/12/22 06:31:17;;;;;;;4.22;2.90;;;;;;;0.02;73.54;100777.97;6241586;23;20421;-73
2021/12/22 06:33:42;;;;;;;2.10;2.00;;;;;;;0.03;73.35;100779.66;6244015;22;20031;-74
2021/12/22 06:36:08;;;;;;;2.28;2.08;;;;;;;0.01;73.46;100776.31;6220382;23;20000;-75
2021/12/22 06:38:34;;;;;;;2.70;2.50;;;;;;;0.01;73.47;100770.94;6248186;22;20039;-73
2021/12/22 06:41:00;;;;;;;2.25;2.15;;;;;;;0.00;74.22;100774.66;6250647;23;20008;-74
2021/12/22 06:43:27;;;;;;;1.88;1.77;;;;;;;-0.03;73.42;100775.00;6248249;23;20016;-75
2021/12/22 06:45:52;;;;;;;2.55;2.33;;;;;;;-0.01;73.41;100781.88;6248262;22;20003;-73
2021/12/22 06:48:18;;;;;;;2.72;2.35;;;;;;;0.01;73.69;100781.69;6246557;22;20015;-74
2021/12/22 06:50:43;;;;;;;5.20;3.30;;;;;;;0.09;73.97;100786.13;6246334;23;20066;-74
2021/12/22 06:53:09;;;;;;;3.63;3.33;;;;;;;0.13;74.41;100784.72;6246574;22;20008;-75
2021/12/22 06:55:34;;;;;;;3.35;3.05;;;;;;;0.22;73.32;100788.13;6249933;23;20011;-75
2021/12/22 06:58:01;;;;;;;6.00;3.75;;;;;;;0.27;73.60;100791.09;6221881;23;20031;-74
2021/12/22 07:00:26;;;;;;;3.53;3.33;;;;;;;0.33;73.66;100790.34;6248748;23;20008;-74
2021/12/22 07:02:53;;;;;;;3.47;3.20;;;;;;;0.32;73.91;100785.97;6251162;22;20105;-76
2021/12/22 07:05:19;;;;;;;3.42;3.15;;;;;;;0.32;74.38;100789.53;6245436;22;20083;-74
2021/12/22 07:07:44;;;;;;;2.70;2.60;;;;;;;0.34;73.56;100792.03;6248857;23;20066;-75
2021/12/22 07:10:11;;;;;;;2.45;2.25;;;;;;;0.32;73.68;100791.34;6249758;23;20074;-75
2021/12/22 07:12:42;;;;;;;1.95;1.85;;;;;;;0.30;73.82;100790.72;6249726;23;20011;-75
2021/12/22 07:15:13;;;;;;;2.35;2.15;;;;;;;0.31;73.75;100781.66;6214879;23;20051;-76
2021/12/22 07:17:39;;;;;;;3.95;2.10;;;;;;;0.30;73.83;100779.97;6246795;23;20008;-77
2021/12/22 07:20:07;;;;;;;2.03;1.92;;;;;;;0.27;74.72;100783.03;6244059;22;20039;-75
2021/12/22 07:22:34;;;;;;;2.20;2.10;;;;;;;0.25;74.72;100777.00;6244748;23;20085;-76
2021/12/22 07:24:59;;;;;;;1.80;1.70;;;;;;;0.25;74.63;100780.53;6242391;22;20087;-75
2021/12/22 07:27:25;;;;;;;1.45;1.35;;;;;;;0.25;73.93;100782.38;6242385;23;20426;-74
2021/12/22 07:29:50;;;;;;;1.75;1.65;;;;;;;0.25;74.24;100783.22;6243712;23;20103;-76
2021/12/22 07:32:16;;;;;;;1.65;1.55;;;;;;;0.24;73.98;100783.41;6219251;23;20334;-76
2021/12/22 07:34:41;;;;;;;2.50;1.70;;;;;;;0.27;73.95;100774.97;6239729;23;20007;-76
2021/12/22 07:37:18;;;;;;;1.60;1.50;;;;;;;0.26;74.68;100767.91;6240716;22;20365;-76
2021/12/22 07:39:44;;;;;;;1.67;1.55;;;;;;;0.28;75.18;100768.56;6237799;23;20003;-75
2021/12/22 07:42:09;;;;;;;2.05;1.95;;;;;;;0.25;74.63;100772.47;6243623;23;20036;-75
2021/12/22 07:44:34;;;;;;;2.00;1.90;;;;;;;0.30;74.84;100777.28;6245247;23;20010;-77
2021/12/22 07:47:00;;;;;;;2.22;2.03;;;;;;;0.29;74.77;100762.16;6255607;23;20004;-76
2021/12/22 07:49:25;;;;;;;2.90;2.60;;;;;;;0.34;74.72;100765.94;6249622;22;20035;-75
2021/12/22 07:51:51;;;;;;;2.78;2.58;;;;;;;0.36;74.47;100763.06;6245500;22;20008;-75
2021/12/22 07:54:16;;;;;;;2.60;2.40;;;;;;;0.39;74.58;100762.66;6245477;23;20008;-76
2021/12/22 07:56:42;;;;;;;2.80;2.60;;;;;;;0.44;74.69;100770.16;6242539;22;20027;-75
2021/12/22 07:59:07;;;;;;;2.30;2.20;;;;;;;0.43;74.43;100769.34;6244374;23;20012;-76
2021/12/22 08:01:33;;;;;;;3.08;2.70;;;;;;;0.49;74.38;100768.56;6214064;23;20011;-74
2021/12/22 08:03:59;;;;;;;2.78;2.58;;;;;;;0.54;75.16;100769.88;6215639;23;20008;-74
2021/12/22 08:06:25;;;;;;;2.75;2.55;;;;;;;0.62;75.32;100778.66;6244056;23;20028;-75
2021/12/22 08:08:51;;;;;;;2.83;2.63;;;;;;;0.60;75.31;100769.09;6247481;23;20000;-74
2021/12/22 08:11:16;;;;;;;2.47;2.38;;;;;;;0.67;74.48;100781.59;6247757;23;20016;-74
2021/12/22 08:13:42;;;;;;;1.88;1.77;;;;;;;0.69;74.43;100774.16;6224678;23;20080;-77
2021/12/22 08:16:07;;;;;;;2.05;1.85;;;;;;;0.72;74.48;100772.13;6248601;23;20031;-77
2021/12/22 08:18:33;;;;;;;1.95;1.85;;;;;;;0.79;74.39;100773.00;6219208;23;20004;-76
2021/12/22 08:21:14;;;;;;;2.78;2.33;;;;;;;0.84;74.84;100776.78;6249329;23;20107;-75
2021/12/22 08:23:44;;;;;;;1.67;1.58;;;;;;;0.87;75.19;100770.19;6228647;23;20012;-75
2021/12/22 08:26:10;;;;;;;1.95;1.85;;;;;;;0.93;74.67;100771.28;6250515;23;20040;-78
2021/12/22 08:28:35;;;;;;;2.53;1.73;;;;;;;0.98;75.11;100766.97;6200103;23;20027;-77
2021/12/22 08:31:09;;;;;;;1.40;1.30;;;;;;;1.10;74.50;100764.59;6241589;23;20079;-78
2021/12/22 08:33:43;;;;;;;3.17;1.70;;;;;;;1.19;75.04;100758.00;6248447;23;20012;-75
2021/12/22 08:39:06;;;;;;;4.30;1.40;;;;;;;1.46;74.73;100752.81;6227376;23;20014;-75
2021/12/22 08:41:40;;;;;;;1.45;1.35;;;;;;;1.56;74.37;100742.50;6257136;22;20000;-78
2021/12/22 08:44:17;;;;;;;1.80;1.70;;;;;;;1.70;74.80;100737.19;6256076;23;20076;-78
2021/12/22 08:46:48;;;;;;;2.60;2.40;;;;;;;1.80;74.38;100734.13;6227157;23;20004;-78
2021/12/22 08:49:16;;;;;;;2.55;2.28;;;;;;;1.91;74.72;100734.38;6255833;22;20060;-78
2021/12/22 08:51:46;;;;;;;4.13;2.60;;;;;;;2.01;74.23;100731.28;6227477;23;20008;-77
2021/12/22 08:54:34;;;;;;;2.03;1.92;;;;;;;2.16;74.49;100733.84;6241056;23;20015;-78
2021/12/22 08:57:19;;;;;;;2.75;2.55;;;;;;;2.26;74.05;100730.75;6235164;23;20008;-75
2021/12/22 08:59:54;;;;;;;2.67;2.40;;;;;;;2.21;74.04;100706.25;6259325;23;20430;-78
2021/12/22 09:02:22;;;;;;;5.10;3.47;;;;;;;2.53;74.22;100725.44;6262045;22;20026;-76
2021/12/22 09:04:58;;;;;;;3.35;3.13;;;;;;;2.61;74.49;100723.38;6256698;23;20019;-76
2021/12/22 09:07:44;;;;;;;3.83;3.53;;;;;;;2.58;73.83;100702.16;6259082;23;20012;-77
2021/12/22 09:10:21;;;;;;;4.13;3.22;;;;;;;2.80;74.09;100720.84;6234286;23;20103;-77
2021/12/22 09:12:47;;;;;;;4.25;3.95;;;;;;;2.79;74.38;100708.41;6259182;23;20008;-77
2021/12/22 09:15:15;;;;;;;4.93;4.15;;;;;;;2.94;74.36;100717.13;6257059;22;20111;-77
2021/12/22 09:17:43;;;;;;;7.50;5.35;;;;;;;2.89;73.86;100702.56;6253091;23;19997;-77
2021/12/22 09:20:12;;;;;;;9.10;5.53;;;;;;;2.97;73.90;100705.91;6254212;23;20000;-76
2021/12/22 09:22:44;;;;;;;4.80;4.53;;;;;;;3.05;73.99;100706.72;6255517;22;20004;-78
2021/12/22 09:25:20;;;;;;;7.35;4.40;;;;;;;3.13;74.63;100698.41;6232066;23;20454;-77
2021/12/22 09:28:01;;;;;;;;;;;;;;;;;;;;;
2021/12/22 09:31:09;;;;;;;;;;;;;;;;;;;;;
2021/12/22 09:34:49;;;;;;;5.13;4.72;;;;;;;3.18;74.03;100668.03;6256924;23;20012;-77
2021/12/22 09:37:11;;;;;;;4.63;4.20;;;;;;;3.29;74.04;100664.69;6246572;23;20008;-78
2021/12/22 09:39:39;;;;;;;7.53;4.00;;;;;;;3.38;74.29;100668.00;6256905;23;20004;-77
2021/12/22 09:45:26;;;;;;;;;;;;;;;;;;;;;
2021/12/22 09:48:27;;;;;;;2.40;2.30;;;;;;;3.83;73.72;100670.75;6256781;23;20040;-78
2021/12/22 09:54:32;;;;;;;2.40;2.30;;;;;;;3.87;73.68;100644.94;6272778;22;20042;-79
2021/12/22 09:57:15;;;;;;;4.82;3.17;;;;;;;4.05;73.33;100660.44;6261402;23;20007;-80
2021/12/22 10:00:10;;;;;;;;;;;;;;;;;;;;;
2021/12/22 10:03:38;;;;;;;;;;;;;;;;;;;;;
2021/12/22 10:06:12;;;;;;;;;;;;;;;;;;;;;
2021/12/22 10:09:04;;;;;;;4.75;4.10;;;;;;;4.44;73.11;100628.72;6253592;22;20026;-79
2021/12/22 10:11:42;;;;;;;13.23;5.53;;;;;;;4.65;72.36;100642.94;6247658;23;20039;-75
2021/12/22 10:14:25;;;;;;;9.18;5.47;;;;;;;4.78;73.06;100633.88;6261663;22;20061;-77
2021/12/22 10:16:59;;;;;;;7.43;4.80;;;;;;;4.81;72.98;100626.09;6251563;22;20027;-75
2021/12/22 10:19:28;;;;;;;6.80;3.60;;;;;;;4.97;72.03;100643.69;6247229;22;20329;-77
2021/12/22 10:21:59;;;;;;;4.20;3.90;;;;;;;5.03;72.58;100648.19;6280527;22;20308;-75
2021/12/22 10:25:03;;;;;;;3.88;3.58;;;;;;;5.02;72.04;100635.72;6279683;22;20004;-76
2021/12/22 10:27:29;;;;;;;6.65;4.15;;;;;;;5.12;71.98;100637.06;6252669;22;20011;-80
2021/12/22 10:30:15;;;;;;;8.13;6.03;;;;;;;5.17;72.00;100631.78;6262612;22;20038;-78
2021/12/22 10:33:08;;;;;;;8.48;5.88;;;;;;;5.13;71.89;100614.34;6236394;22;20042;-77
2021/12/22 10:36:03;;;;;;;6.55;5.93;;;;;;;5.21;71.29;100625.72;6240905;22;20000;-78
2021/12/22 10:38:38;;;;;;;6.35;5.68;;;;;;;5.19;70.55;100611.53;6230693;22;20011;-77
2021/12/22 10:41:10;;;;;;;10.38;6.35;;;;;;;5.22;71.15;100600.25;6253737;22;20070;-79
2021/12/22 10:43:50;;;;;;;6.15;5.45;;;;;;;5.35;71.27;100596.56;6249069;22;20031;-75
2021/12/22 10:46:52;;;;;;;5.78;4.82;;;;;;;5.38;70.77;100595.28;6252599;22;20038;-78
2021/12/22 10:49:25;;;;;;;4.57;4.38;;;;;;;5.44;71.12;100590.81;6227870;22;20011;-77
2021/12/22 10:52:02;;;;;;;4.38;3.90;;;;;;;5.42;70.29;100580.22;6251221;22;20011;-76
2021/12/22 10:54:36;;;;;;;4.78;3.83;;;;;;;5.45;70.67;100578.91;6277463;22;20371;-79
2021/12/22 10:57:12;;;;;;;5.90;4.57;;;;;;;5.58;70.02;100578.75;6275389;22;20000;-78
2021/12/22 10:59:55;;;;;;;;;;;;;;;5.68;69.68;100579.03;6279445;22;20007;-78
2021/12/22 11:02:35;;;;;;;;;;;;;;;;;;;;;
2021/12/22 11:05:23;;;;;;;7.15;3.22;;;;;;;5.67;69.94;100566.50;6282658;22;20035;-77
2021/12/22 11:07:58;;;;;;;3.95;3.60;;;;;;;5.66;69.82;100559.44;6251181;22;20004;-74
2021/12/22 11:10:34;;;;;;;5.50;3.80;;;;;;;5.70;69.50;100565.22;6247077;22;20011;-73
2021/12/22 11:13:21;;;;;;;3.40;3.20;;;;;;;5.80;70.09;100581.78;6273462;22;20007;-78
2021/12/22 11:16:01;;;;;;;3.28;3.08;;;;;;;5.80;68.96;100580.94;6218707;23;20024;-79
2021/12/22 11:18:29;;;;;;;4.65;3.67;;;;;;;5.73;69.10;100565.59;6177701;23;20004;-79
2021/12/22 11:21:39;;;;;;;6.22;3.70;;;;;;;5.90;69.50;100571.19;6222008;23;20521;-80
2021/12/22 11:24:34;;;;;;;4.07;3.88;;;;;;;5.92;68.53;100558.22;6244814;23;20072;-79
2021/12/22 11:27:13;;;;;;;6.78;3.38;;;;;;;5.92;69.25;100558.22;6226340;23;20008;-80
2021/12/22 11:29:57;;;;;;;;;;;;;;;;;;;;;
2021/12/22 11:32:59;;;;;;;5.43;3.55;;;;;;;5.95;68.25;100529.78;6251712;23;20038;-80
2021/12/22 11:36:10;;;;;;;;;;;;;;;;;;;;;
2021/12/22 11:38:57;;;;;;;3.65;3.35;;;;;;;6.04;69.09;100533.84;6253716;23;20032;-79
2021/12/22 11:41:23;;;;;;;4.93;4.50;;;;;;;6.01;67.85;100515.31;6226414;23;20004;-78
2021/12/22 11:43:50;;;;;;;3.90;3.42;;;;;;;6.14;68.07;100535.16;6228684;23;20008;-80
2021/12/22 11:46:27;;;;;;;;;;;;;;;;;;;;;
2021/12/22 11:49:01;;;;;;;3.90;3.50;;;;;;;6.25;68.91;100550.63;6218837;23;20083;-75
2021/12/22 11:51:33;;;;;;;10.20;4.22;;;;;;;6.32;68.35;100550.53;6214356;23;20000;-75
2021/12/22 11:54:10;;;;;;;6.60;5.53;;;;;;;6.26;67.68;100541.44;6244985;23;20078;-77
2021/12/22 11:57:07;;;;;;;5.70;5.30;;;;;;;6.36;68.20;100530.00;6218756;23;20095;-74
2021/12/22 11:59:46;;;;;;;7.57;5.07;;;;;;;6.36;68.17;100524.56;6214833;23;20004;-75
2021/12/22 12:02:48;;;;;;;6.65;4.88;;;;;;;6.52;67.66;100523.03;6190604;23;20480;-76
2021/12/22 12:05:26;;;;;;;7.00;5.18;;;;;;;6.52;68.14;100507.53;6097426;23;20014;-75
2021/12/22 12:08:17;;;;;;;5.18;4.65;;;;;;;6.58;68.33;100503.06;6214386;23;20008;-78
2021/12/22 12:10:56;;;;;;;6.75;4.90;;;;;;;6.68;67.23;100494.31;6232287;23;20023;-78
2021/12/22 12:13:36;;;;;;;5.18;4.65;;;;;;;6.77;67.12;100492.88;6239618;22;20016;-75
2021/12/22 12:22:10;;;;;;;5.03;4.03;;;;;;;7.09;66.22;100482.38;6283825;22;20014;-78
2021/12/22 12:25:05;;;;;;;5.30;3.67;;;;;;;7.18;66.86;100480.09;6257182;22;20090;-77
2021/12/22 12:27:50;;;;;;;5.53;3.85;;;;;;;7.27;66.16;100486.84;6251463;22;20007;-77
2021/12/22 12:30:22;;;;;;;4.43;3.83;;;;;;;7.31;66.04;100479.00;6237560;22;20004;-77
2021/12/22 12:32:57;;;;;;;7.15;4.43;;;;;;;7.30;65.90;100470.03;6288091;22;19999;-77
2021/12/22 12:35:26;;;;;;;;;;;;;;;7.30;65.23;100455.56;6260327;22;20014;-78
2021/12/22 12:38:00;;;;;;;4.78;4.35;;;;;;;7.23;65.64;100441.28;6261937;22;20230;-77
2021/12/22 12:41:00;;;;;;;6.35;4.93;;;;;;;7.15;65.87;100445.25;6287283;22;20541;-76
2021/12/22 12:43:48;;;;;;;5.30;4.60;;;;;;;7.08;65.75;100439.97;6256764;22;20067;-76
2021/12/22 12:46:27;;;;;;;14.05;5.00;;;;;;;7.02;65.05;100429.22;6253672;22;20018;-78
2021/12/22 12:49:05;;;;;;;5.90;4.88;;;;;;;6.97;65.68;100424.50;6258276;22;20090;-77
2021/12/22 12:52:08;;;;;;;9.00;4.85;;;;;;;6.99;65.14;100430.53;6283887;22;20037;-74
2021/12/22 12:55:15;;;;;;;6.20;4.85;;;;;;;6.94;65.24;100427.72;6285044;22;20003;-76
2021/12/22 12:57:44;;;;;;;9.70;4.90;;;;;;;6.87;65.59;100414.25;6259417;22;20444;-75
2021/12/22 13:00:22;;;;;;;4.57;4.10;;;;;;;6.86;65.18;100406.34;6235063;22;20004;-78
2021/12/22 13:10:24;;;;;;;6.72;5.28;;;;;;;7.46;65.40;100386.78;6091137;23;20017;-71
2021/12/22 13:15:51;;;;;;;9.20;4.00;;;;;;;8.16;63.92;100379.16;6111772;23;20354;-70
2021/12/22 13:18:21;;;;;;;5.78;4.30;;;;;;;8.58;63.10;100390.63;6197081;23;20004;-73
2021/12/22 13:20:54;;;;;;;9.68;4.40;;;;;;;8.84;62.80;100373.47;6217492;23;20019;-72
2021/12/22 13:23:43;;;;;;;6.57;4.90;;;;;;;9.22;61.53;100396.22;6244970;23;20003;-71
2021/12/22 13:26:13;;;;;;;5.72;4.78;;;;;;;9.42;61.49;100372.97;6246589;23;20008;-69